sensor_id;sensor_type;location;lat;lon;timestamp;P1;durP1;ratioP1;P2;durP2;ratioP2
23573;SDS011;11965;53.640;10.050;2022-08-19T00:00:30;24.00;;;15.10;;
23573;SDS011;11965;53.640;10.050;2022-08-19T00:02:56;21.10;;;14.30;;
23573;SDS011;11965;53.640;10.050;2022-08-19T00:05:22;22.20;;;14.35;;
23573;SDS011;11965;53.640;10.050;2022-08-19T00:07:48;20.27;;;13.25;;
23573;SDS011;11965;53.640;10.050;2022-08-19T00:10:15;20.38;;;13.30;;
23573;SDS011;11965;53.640;10.050;2022-08-19T00:12:42;25.88;;;14.48;;
23573;SDS011;11965;53.640;10.050;2022-08-19T00:15:09;19.65;;;13.25;;
23573;SDS011;11965;53.640;10.050;2022-08-19T00:17:38;20.95;;;13.60;;
23573;SDS011;11965;53.640;10.050;2022-08-19T00:20:05;24.95;;;14.40;;
23573;SDS011;11965;53.640;10.050;2022-08-19T00:22:31;23.50;;;14.35;;
23573;SDS011;11965;53.640;10.050;2022-08-19T00:24:57;25.35;;;14.32;;
23573;SDS011;11965;53.640;10.050;2022-08-19T00:27:23;21.13;;;13.70;;
23573;SDS011;11965;53.640;10.050;2022-08-19T00:29:48;26.85;;;14.57;;
23573;SDS011;11965;53.640;10.050;2022-08-19T00:32:14;24.38;;;14.07;;
23573;SDS011;11965;53.640;10.050;2022-08-19T00:34:40;22.52;;;13.90;;
23573;SDS011;11965;53.640;10.050;2022-08-19T00:37:05;21.73;;;13.35;;
23573;SDS011;11965;53.640;10.050;2022-08-19T00:39:30;23.33;;;13.52;;
23573;SDS011;11965;53.640;10.050;2022-08-19T00:41:56;24.00;;;14.02;;
23573;SDS011;11965;53.640;10.050;2022-08-19T00:44:24;22.63;;;14.00;;
23573;SDS011;11965;53.640;10.050;2022-08-19T00:46:53;21.65;;;13.75;;
23573;SDS011;11965;53.640;10.050;2022-08-19T00:49:24;24.00;;;14.43;;
23573;SDS011;11965;53.640;10.050;2022-08-19T00:54:20;24.08;;;15.27;;
23573;SDS011;11965;53.640;10.050;2022-08-19T00:56:46;25.17;;;14.55;;
23573;SDS011;11965;53.640;10.050;2022-08-19T00:59:14;24.38;;;14.65;;
23573;SDS011;11965;53.640;10.050;2022-08-19T01:01:41;26.33;;;15.32;;
23573;SDS011;11965;53.640;10.050;2022-08-19T01:04:08;24.77;;;15.52;;
23573;SDS011;11965;53.640;10.050;2022-08-19T01:06:35;24.88;;;15.30;;
23573;SDS011;11965;53.640;10.050;2022-08-19T01:09:03;23.33;;;14.45;;
23573;SDS011;11965;53.640;10.050;2022-08-19T01:11:29;24.00;;;14.70;;
23573;SDS011;11965;53.640;10.050;2022-08-19T01:13:58;30.08;;;16.27;;
23573;SDS011;11965;53.640;10.050;2022-08-19T01:16:24;27.73;;;15.73;;
23573;SDS011;11965;53.640;10.050;2022-08-19T01:18:52;28.90;;;16.10;;
23573;SDS011;11965;53.640;10.050;2022-08-19T01:21:20;26.02;;;16.10;;
23573;SDS011;11965;53.640;10.050;2022-08-19T01:23:51;28.15;;;16.67;;
23573;SDS011;11965;53.640;10.050;2022-08-19T01:26:18;25.98;;;15.55;;
23573;SDS011;11965;53.640;10.050;2022-08-19T01:28:47;26.42;;;15.45;;
23573;SDS011;11965;53.640;10.050;2022-08-19T01:31:15;22.48;;;14.60;;
23573;SDS011;11965;53.640;10.050;2022-08-19T01:33:43;24.00;;;16.67;;
23573;SDS011;11965;53.640;10.050;2022-08-19T01:36:13;27.63;;;15.60;;
23573;SDS011;11965;53.640;10.050;2022-08-19T01:38:41;25.02;;;15.02;;
23573;SDS011;11965;53.640;10.050;2022-08-19T01:41:09;23.77;;;15.57;;
23573;SDS011;11965;53.640;10.050;2022-08-19T01:43:36;25.10;;;15.52;;
23573;SDS011;11965;53.640;10.050;2022-08-19T01:46:01;22.63;;;14.70;;
23573;SDS011;11965;53.640;10.050;2022-08-19T01:48:32;25.52;;;13.50;;
23573;SDS011;11965;53.640;10.050;2022-08-19T01:50:59;27.40;;;16.10;;
23573;SDS011;11965;53.640;10.050;2022-08-19T01:53:24;25.70;;;15.23;;
23573;SDS011;11965;53.640;10.050;2022-08-19T01:55:49;27.90;;;16.38;;
23573;SDS011;11965;53.640;10.050;2022-08-19T01:58:17;30.73;;;15.88;;
23573;SDS011;11965;53.640;10.050;2022-08-19T02:00:46;30.40;;;15.82;;
23573;SDS011;11965;53.640;10.050;2022-08-19T02:03:12;30.58;;;16.00;;
23573;SDS011;11965;53.640;10.050;2022-08-19T02:05:37;30.70;;;16.58;;
23573;SDS011;11965;53.640;10.050;2022-08-19T02:08:03;29.77;;;16.88;;
23573;SDS011;11965;53.640;10.050;2022-08-19T02:10:29;28.35;;;16.17;;
23573;SDS011;11965;53.640;10.050;2022-08-19T02:12:55;34.72;;;16.33;;
23573;SDS011;11965;53.640;10.050;2022-08-19T02:15:20;34.47;;;16.25;;
23573;SDS011;11965;53.640;10.050;2022-08-19T02:17:47;35.00;;;17.33;;
23573;SDS011;11965;53.640;10.050;2022-08-19T02:20:12;35.88;;;16.83;;
23573;SDS011;11965;53.640;10.050;2022-08-19T02:22:39;29.63;;;16.40;;
23573;SDS011;11965;53.640;10.050;2022-08-19T02:25:07;35.88;;;16.85;;
23573;SDS011;11965;53.640;10.050;2022-08-19T02:27:34;36.88;;;17.45;;
23573;SDS011;11965;53.640;10.050;2022-08-19T02:30:00;31.38;;;16.45;;
23573;SDS011;11965;53.640;10.050;2022-08-19T02:32:26;31.15;;;16.90;;
23573;SDS011;11965;53.640;10.050;2022-08-19T02:34:52;30.80;;;16.60;;
23573;SDS011;11965;53.640;10.050;2022-08-19T02:37:18;36.45;;;17.73;;
23573;SDS011;11965;53.640;10.050;2022-08-19T02:40:02;32.30;;;16.88;;
23573;SDS011;11965;53.640;10.050;2022-08-19T02:42:28;32.95;;;17.45;;
23573;SDS011;11965;53.640;10.050;2022-08-19T02:44:55;32.13;;;18.13;;
23573;SDS011;11965;53.640;10.050;2022-08-19T02:47:20;29.15;;;16.20;;
23573;SDS011;11965;53.640;10.050;2022-08-19T02:49:46;33.33;;;18.00;;
23573;SDS011;11965;53.640;10.050;2022-08-19T02:52:14;39.63;;;18.08;;
23573;SDS011;11965;53.640;10.050;2022-08-19T02:54:40;34.20;;;17.27;;
23573;SDS011;11965;53.640;10.050;2022-08-19T02:57:05;28.50;;;16.63;;
23573;SDS011;11965;53.640;10.050;2022-08-19T02:59:31;36.25;;;18.40;;
23573;SDS011;11965;53.640;10.050;2022-08-19T03:01:57;30.50;;;16.40;;
23573;SDS011;11965;53.640;10.050;2022-08-19T03:04:23;34.85;;;17.60;;
23573;SDS011;11965;53.640;10.050;2022-08-19T03:06:49;33.53;;;17.40;;
23573;SDS011;11965;53.640;10.050;2022-08-19T03:09:15;31.95;;;17.08;;
23573;SDS011;11965;53.640;10.050;2022-08-19T03:11:42;30.52;;;17.38;;
23573;SDS011;11965;53.640;10.050;2022-08-19T03:14:08;34.17;;;17.55;;
23573;SDS011;11965;53.640;10.050;2022-08-19T03:16:35;38.05;;;19.30;;
23573;SDS011;11965;53.640;10.050;2022-08-19T03:19:09;33.05;;;17.98;;
23573;SDS011;11965;53.640;10.050;2022-08-19T03:21:35;30.08;;;16.92;;
23573;SDS011;11965;53.640;10.050;2022-08-19T03:24:02;31.70;;;17.05;;
23573;SDS011;11965;53.640;10.050;2022-08-19T03:26:33;33.70;;;16.50;;
23573;SDS011;11965;53.640;10.050;2022-08-19T03:29:02;33.47;;;17.23;;
23573;SDS011;11965;53.640;10.050;2022-08-19T03:31:29;33.17;;;15.38;;
23573;SDS011;11965;53.640;10.050;2022-08-19T03:33:56;32.63;;;16.45;;
23573;SDS011;11965;53.640;10.050;2022-08-19T03:36:23;33.25;;;16.40;;
23573;SDS011;11965;53.640;10.050;2022-08-19T03:38:51;33.03;;;17.38;;
23573;SDS011;11965;53.640;10.050;2022-08-19T03:41:20;34.17;;;17.08;;
23573;SDS011;11965;53.640;10.050;2022-08-19T03:43:48;31.80;;;17.73;;
23573;SDS011;11965;53.640;10.050;2022-08-19T03:46:16;30.67;;;16.73;;
23573;SDS011;11965;53.640;10.050;2022-08-19T03:48:45;34.47;;;17.10;;
23573;SDS011;11965;53.640;10.050;2022-08-19T03:51:18;31.33;;;17.63;;
23573;SDS011;11965;53.640;10.050;2022-08-19T03:53:58;24.95;;;14.88;;
23573;SDS011;11965;53.640;10.050;2022-08-19T03:56:26;33.17;;;16.08;;
23573;SDS011;11965;53.640;10.050;2022-08-19T03:58:53;30.25;;;15.43;;
23573;SDS011;11965;53.640;10.050;2022-08-19T04:01:20;28.33;;;15.13;;
23573;SDS011;11965;53.640;10.050;2022-08-19T04:03:46;27.98;;;15.82;;
23573;SDS011;11965;53.640;10.050;2022-08-19T04:06:23;28.70;;;15.95;;
23573;SDS011;11965;53.640;10.050;2022-08-19T04:09:00;28.23;;;15.38;;
23573;SDS011;11965;53.640;10.050;2022-08-19T04:11:31;28.95;;;16.70;;
23573;SDS011;11965;53.640;10.050;2022-08-19T04:14:00;30.00;;;15.98;;
23573;SDS011;11965;53.640;10.050;2022-08-19T04:16:26;30.65;;;14.98;;
23573;SDS011;11965;53.640;10.050;2022-08-19T04:18:56;30.15;;;16.08;;
23573;SDS011;11965;53.640;10.050;2022-08-19T04:21:26;33.83;;;16.85;;
23573;SDS011;11965;53.640;10.050;2022-08-19T04:23:52;28.52;;;16.75;;
23573;SDS011;11965;53.640;10.050;2022-08-19T04:26:29;38.15;;;17.55;;
23573;SDS011;11965;53.640;10.050;2022-08-19T04:28:57;32.15;;;16.38;;
23573;SDS011;11965;53.640;10.050;2022-08-19T04:31:28;36.22;;;17.77;;
23573;SDS011;11965;53.640;10.050;2022-08-19T04:33:56;35.10;;;17.70;;
23573;SDS011;11965;53.640;10.050;2022-08-19T04:36:24;39.58;;;18.55;;
23573;SDS011;11965;53.640;10.050;2022-08-19T04:38:55;40.67;;;18.98;;
23573;SDS011;11965;53.640;10.050;2022-08-19T04:41:22;39.83;;;19.52;;
23573;SDS011;11965;53.640;10.050;2022-08-19T04:44:06;35.85;;;19.45;;
23573;SDS011;11965;53.640;10.050;2022-08-19T04:46:32;37.17;;;19.52;;
23573;SDS011;11965;53.640;10.050;2022-08-19T04:48:59;37.95;;;19.00;;
23573;SDS011;11965;53.640;10.050;2022-08-19T04:51:25;36.38;;;20.67;;
23573;SDS011;11965;53.640;10.050;2022-08-19T04:53:51;43.63;;;22.15;;
23573;SDS011;11965;53.640;10.050;2022-08-19T04:56:17;43.58;;;21.65;;
23573;SDS011;11965;53.640;10.050;2022-08-19T04:58:47;42.38;;;20.70;;
23573;SDS011;11965;53.640;10.050;2022-08-19T05:01:20;44.88;;;21.42;;
23573;SDS011;11965;53.640;10.050;2022-08-19T05:03:48;45.00;;;21.23;;
23573;SDS011;11965;53.640;10.050;2022-08-19T05:06:15;39.05;;;21.25;;
23573;SDS011;11965;53.640;10.050;2022-08-19T05:08:43;48.20;;;24.08;;
23573;SDS011;11965;53.640;10.050;2022-08-19T05:11:11;40.85;;;22.73;;
23573;SDS011;11965;53.640;10.050;2022-08-19T05:13:39;44.35;;;25.00;;
23573;SDS011;11965;53.640;10.050;2022-08-19T05:16:04;55.17;;;25.30;;
23573;SDS011;11965;53.640;10.050;2022-08-19T05:18:30;48.28;;;24.48;;
23573;SDS011;11965;53.640;10.050;2022-08-19T05:21:15;49.50;;;25.73;;
23573;SDS011;11965;53.640;10.050;2022-08-19T05:24:00;49.08;;;23.05;;
23573;SDS011;11965;53.640;10.050;2022-08-19T05:26:27;45.95;;;23.77;;
23573;SDS011;11965;53.640;10.050;2022-08-19T05:28:53;46.70;;;24.00;;
23573;SDS011;11965;53.640;10.050;2022-08-19T05:31:19;46.50;;;25.13;;
23573;SDS011;11965;53.640;10.050;2022-08-19T05:33:44;46.30;;;24.30;;
23573;SDS011;11965;53.640;10.050;2022-08-19T05:36:10;41.03;;;22.95;;
23573;SDS011;11965;53.640;10.050;2022-08-19T05:38:36;39.05;;;21.77;;
23573;SDS011;11965;53.640;10.050;2022-08-19T05:41:11;44.97;;;22.83;;
23573;SDS011;11965;53.640;10.050;2022-08-19T05:43:38;40.20;;;21.63;;
23573;SDS011;11965;53.640;10.050;2022-08-19T05:46:04;40.65;;;21.00;;
23573;SDS011;11965;53.640;10.050;2022-08-19T05:48:31;33.72;;;20.17;;
23573;SDS011;11965;53.640;10.050;2022-08-19T05:50:57;32.65;;;17.95;;
23573;SDS011;11965;53.640;10.050;2022-08-19T05:53:24;34.83;;;18.40;;
23573;SDS011;11965;53.640;10.050;2022-08-19T05:55:50;35.42;;;19.13;;
23573;SDS011;11965;53.640;10.050;2022-08-19T05:58:15;35.85;;;19.10;;
23573;SDS011;11965;53.640;10.050;2022-08-19T06:00:42;32.22;;;18.50;;
23573;SDS011;11965;53.640;10.050;2022-08-19T06:03:08;31.17;;;16.83;;
23573;SDS011;11965;53.640;10.050;2022-08-19T06:05:34;27.35;;;16.40;;
23573;SDS011;11965;53.640;10.050;2022-08-19T06:07:59;26.65;;;15.80;;
23573;SDS011;11965;53.640;10.050;2022-08-19T06:10:25;35.08;;;17.60;;
23573;SDS011;11965;53.640;10.050;2022-08-19T06:12:51;27.83;;;16.45;;
23573;SDS011;11965;53.640;10.050;2022-08-19T06:15:17;28.20;;;16.50;;
23573;SDS011;11965;53.640;10.050;2022-08-19T06:17:42;28.55;;;16.92;;
23573;SDS011;11965;53.640;10.050;2022-08-19T06:20:10;25.88;;;15.68;;
23573;SDS011;11965;53.640;10.050;2022-08-19T06:22:41;30.73;;;17.30;;
23573;SDS011;11965;53.640;10.050;2022-08-19T06:25:09;35.75;;;18.02;;
23573;SDS011;11965;53.640;10.050;2022-08-19T06:27:35;31.50;;;16.83;;
23573;SDS011;11965;53.640;10.050;2022-08-19T06:30:02;28.45;;;17.38;;
23573;SDS011;11965;53.640;10.050;2022-08-19T06:32:29;29.65;;;17.25;;
23573;SDS011;11965;53.640;10.050;2022-08-19T06:34:55;33.35;;;16.75;;
23573;SDS011;11965;53.640;10.050;2022-08-19T06:37:20;30.75;;;16.73;;
23573;SDS011;11965;53.640;10.050;2022-08-19T06:39:47;34.20;;;17.95;;
23573;SDS011;11965;53.640;10.050;2022-08-19T06:42:13;31.98;;;18.10;;
23573;SDS011;11965;53.640;10.050;2022-08-19T06:44:41;31.55;;;17.80;;
23573;SDS011;11965;53.640;10.050;2022-08-19T06:47:08;32.13;;;16.45;;
23573;SDS011;11965;53.640;10.050;2022-08-19T06:49:37;31.75;;;17.92;;
23573;SDS011;11965;53.640;10.050;2022-08-19T06:52:03;36.00;;;17.15;;
23573;SDS011;11965;53.640;10.050;2022-08-19T06:54:30;33.60;;;17.02;;
23573;SDS011;11965;53.640;10.050;2022-08-19T06:56:57;33.13;;;17.20;;
23573;SDS011;11965;53.640;10.050;2022-08-19T06:59:29;34.55;;;17.67;;
23573;SDS011;11965;53.640;10.050;2022-08-19T07:01:58;27.80;;;16.85;;
23573;SDS011;11965;53.640;10.050;2022-08-19T07:04:27;32.72;;;17.45;;
23573;SDS011;11965;53.640;10.050;2022-08-19T07:06:58;33.20;;;17.23;;
23573;SDS011;11965;53.640;10.050;2022-08-19T07:09:35;33.45;;;17.88;;
23573;SDS011;11965;53.640;10.050;2022-08-19T07:12:03;32.83;;;17.50;;
23573;SDS011;11965;53.640;10.050;2022-08-19T07:14:30;38.28;;;17.23;;
23573;SDS011;11965;53.640;10.050;2022-08-19T07:16:55;29.85;;;17.10;;
23573;SDS011;11965;53.640;10.050;2022-08-19T07:19:22;34.90;;;18.35;;
23573;SDS011;11965;53.640;10.050;2022-08-19T07:21:51;37.25;;;18.05;;
23573;SDS011;11965;53.640;10.050;2022-08-19T07:24:18;33.42;;;18.10;;
23573;SDS011;11965;53.640;10.050;2022-08-19T07:26:44;35.55;;;18.23;;
23573;SDS011;11965;53.640;10.050;2022-08-19T07:29:10;34.50;;;17.55;;
23573;SDS011;11965;53.640;10.050;2022-08-19T07:31:37;29.63;;;16.88;;
23573;SDS011;11965;53.640;10.050;2022-08-19T07:34:08;30.58;;;16.75;;
23573;SDS011;11965;53.640;10.050;2022-08-19T07:36:37;29.80;;;16.75;;
23573;SDS011;11965;53.640;10.050;2022-08-19T07:39:17;31.52;;;16.95;;
23573;SDS011;11965;53.640;10.050;2022-08-19T07:41:50;30.98;;;16.50;;
23573;SDS011;11965;53.640;10.050;2022-08-19T07:44:16;30.15;;;16.50;;
23573;SDS011;11965;53.640;10.050;2022-08-19T07:46:44;29.98;;;16.05;;
23573;SDS011;11965;53.640;10.050;2022-08-19T07:49:12;29.33;;;15.93;;
23573;SDS011;11965;53.640;10.050;2022-08-19T07:51:48;28.83;;;15.18;;
23573;SDS011;11965;53.640;10.050;2022-08-19T07:54:16;31.25;;;16.52;;
23573;SDS011;11965;53.640;10.050;2022-08-19T07:56:42;28.67;;;15.55;;
23573;SDS011;11965;53.640;10.050;2022-08-19T07:59:08;30.58;;;15.70;;
23573;SDS011;11965;53.640;10.050;2022-08-19T08:01:34;30.20;;;15.50;;
23573;SDS011;11965;53.640;10.050;2022-08-19T08:04:00;29.13;;;16.45;;
23573;SDS011;11965;53.640;10.050;2022-08-19T08:06:44;26.35;;;14.85;;
23573;SDS011;11965;53.640;10.050;2022-08-19T08:09:31;27.80;;;14.77;;
23573;SDS011;11965;53.640;10.050;2022-08-19T08:12:15;27.45;;;14.35;;
23573;SDS011;11965;53.640;10.050;2022-08-19T08:14:48;30.73;;;16.02;;
23573;SDS011;11965;53.640;10.050;2022-08-19T08:17:15;31.63;;;16.88;;
23573;SDS011;11965;53.640;10.050;2022-08-19T08:19:43;36.47;;;16.25;;
23573;SDS011;11965;53.640;10.050;2022-08-19T08:22:10;30.63;;;16.70;;
23573;SDS011;11965;53.640;10.050;2022-08-19T08:24:56;31.70;;;16.20;;
23573;SDS011;11965;53.640;10.050;2022-08-19T08:27:26;26.73;;;16.17;;
23573;SDS011;11965;53.640;10.050;2022-08-19T08:29:54;31.52;;;15.70;;
23573;SDS011;11965;53.640;10.050;2022-08-19T08:32:19;29.73;;;15.40;;
23573;SDS011;11965;53.640;10.050;2022-08-19T08:34:45;23.35;;;14.63;;
23573;SDS011;11965;53.640;10.050;2022-08-19T08:37:10;28.25;;;15.52;;
23573;SDS011;11965;53.640;10.050;2022-08-19T08:39:35;29.23;;;14.93;;
23573;SDS011;11965;53.640;10.050;2022-08-19T08:42:36;31.15;;;15.45;;
23573;SDS011;11965;53.640;10.050;2022-08-19T08:47:32;23.10;;;14.10;;
23573;SDS011;11965;53.640;10.050;2022-08-19T08:50:25;27.23;;;14.70;;
23573;SDS011;11965;53.640;10.050;2022-08-19T08:52:57;24.70;;;13.73;;
23573;SDS011;11965;53.640;10.050;2022-08-19T08:55:27;31.17;;;16.27;;
23573;SDS011;11965;53.640;10.050;2022-08-19T08:58:01;26.23;;;15.45;;
23573;SDS011;11965;53.640;10.050;2022-08-19T09:00:43;31.38;;;14.90;;
23573;SDS011;11965;53.640;10.050;2022-08-19T09:03:19;24.55;;;13.52;;
23573;SDS011;11965;53.640;10.050;2022-08-19T09:06:01;28.75;;;14.73;;
23573;SDS011;11965;53.640;10.050;2022-08-19T09:11:04;25.45;;;13.90;;
23573;SDS011;11965;53.640;10.050;2022-08-19T09:13:49;26.20;;;14.90;;
23573;SDS011;11965;53.640;10.050;2022-08-19T09:16:19;26.27;;;14.10;;
23573;SDS011;11965;53.640;10.050;2022-08-19T09:18:52;26.73;;;15.07;;
23573;SDS011;11965;53.640;10.050;2022-08-19T09:21:20;31.58;;;14.20;;
23573;SDS011;11965;53.640;10.050;2022-08-19T09:23:47;25.05;;;13.90;;
23573;SDS011;11965;53.640;10.050;2022-08-19T09:26:15;25.00;;;13.60;;
23573;SDS011;11965;53.640;10.050;2022-08-19T09:28:43;25.15;;;13.50;;
23573;SDS011;11965;53.640;10.050;2022-08-19T09:31:15;22.98;;;14.70;;
23573;SDS011;11965;53.640;10.050;2022-08-19T09:36:10;26.10;;;14.50;;
23573;SDS011;11965;53.640;10.050;2022-08-19T09:38:37;25.40;;;13.95;;
23573;SDS011;11965;53.640;10.050;2022-08-19T09:41:16;23.33;;;14.30;;
23573;SDS011;11965;53.640;10.050;2022-08-19T09:43:44;22.52;;;14.25;;
23573;SDS011;11965;53.640;10.050;2022-08-19T09:46:11;27.55;;;15.02;;
23573;SDS011;11965;53.640;10.050;2022-08-19T09:48:40;23.30;;;13.93;;
23573;SDS011;11965;53.640;10.050;2022-08-19T09:51:08;22.83;;;13.98;;
23573;SDS011;11965;53.640;10.050;2022-08-19T09:53:36;27.92;;;14.15;;
23573;SDS011;11965;53.640;10.050;2022-08-19T09:56:03;23.58;;;14.25;;
23573;SDS011;11965;53.640;10.050;2022-08-19T09:58:30;21.05;;;13.88;;
23573;SDS011;11965;53.640;10.050;2022-08-19T10:00:57;25.75;;;13.55;;
23573;SDS011;11965;53.640;10.050;2022-08-19T10:03:23;20.40;;;13.10;;
23573;SDS011;11965;53.640;10.050;2022-08-19T10:05:49;21.58;;;13.52;;
23573;SDS011;11965;53.640;10.050;2022-08-19T10:08:16;25.75;;;14.38;;
23573;SDS011;11965;53.640;10.050;2022-08-19T10:10:43;22.83;;;12.60;;
23573;SDS011;11965;53.640;10.050;2022-08-19T10:13:09;24.05;;;14.23;;
23573;SDS011;11965;53.640;10.050;2022-08-19T10:15:35;24.92;;;13.25;;
23573;SDS011;11965;53.640;10.050;2022-08-19T10:18:04;23.83;;;14.32;;
23573;SDS011;11965;53.640;10.050;2022-08-19T10:20:30;24.83;;;14.57;;
23573;SDS011;11965;53.640;10.050;2022-08-19T10:22:56;26.33;;;15.27;;
23573;SDS011;11965;53.640;10.050;2022-08-19T10:25:21;22.98;;;13.43;;
23573;SDS011;11965;53.640;10.050;2022-08-19T10:27:47;23.33;;;14.63;;
23573;SDS011;11965;53.640;10.050;2022-08-19T10:30:12;25.67;;;14.57;;
23573;SDS011;11965;53.640;10.050;2022-08-19T10:32:39;24.63;;;14.32;;
23573;SDS011;11965;53.640;10.050;2022-08-19T10:35:05;23.88;;;13.80;;
23573;SDS011;11965;53.640;10.050;2022-08-19T10:37:34;23.67;;;13.82;;
23573;SDS011;11965;53.640;10.050;2022-08-19T10:40:02;25.67;;;14.50;;
23573;SDS011;11965;53.640;10.050;2022-08-19T10:42:30;22.80;;;13.65;;
23573;SDS011;11965;53.640;10.050;2022-08-19T10:44:56;26.02;;;14.77;;
23573;SDS011;11965;53.640;10.050;2022-08-19T10:47:22;25.80;;;14.23;;
23573;SDS011;11965;53.640;10.050;2022-08-19T10:49:48;25.52;;;14.65;;
23573;SDS011;11965;53.640;10.050;2022-08-19T10:52:33;26.60;;;13.90;;
23573;SDS011;11965;53.640;10.050;2022-08-19T10:55:02;23.63;;;13.25;;
23573;SDS011;11965;53.640;10.050;2022-08-19T10:57:48;23.23;;;14.07;;
23573;SDS011;11965;53.640;10.050;2022-08-19T11:00:13;23.10;;;12.82;;
23573;SDS011;11965;53.640;10.050;2022-08-19T11:02:39;24.08;;;13.40;;
23573;SDS011;11965;53.640;10.050;2022-08-19T11:05:06;18.95;;;12.50;;
23573;SDS011;11965;53.640;10.050;2022-08-19T11:07:32;19.50;;;12.70;;
23573;SDS011;11965;53.640;10.050;2022-08-19T11:09:57;23.52;;;12.48;;
23573;SDS011;11965;53.640;10.050;2022-08-19T11:12:23;19.33;;;12.85;;
23573;SDS011;11965;53.640;10.050;2022-08-19T11:14:49;21.33;;;12.77;;
23573;SDS011;11965;53.640;10.050;2022-08-19T11:17:15;22.58;;;12.55;;
23573;SDS011;11965;53.640;10.050;2022-08-19T11:19:40;22.27;;;12.98;;
23573;SDS011;11965;53.640;10.050;2022-08-19T11:22:08;22.27;;;13.45;;
23573;SDS011;11965;53.640;10.050;2022-08-19T11:24:34;23.92;;;13.43;;
23573;SDS011;11965;53.640;10.050;2022-08-19T11:27:04;21.33;;;12.77;;
23573;SDS011;11965;53.640;10.050;2022-08-19T11:29:32;23.70;;;13.27;;
23573;SDS011;11965;53.640;10.050;2022-08-19T11:31:59;21.15;;;13.05;;
23573;SDS011;11965;53.640;10.050;2022-08-19T11:34:27;21.88;;;13.23;;
23573;SDS011;11965;53.640;10.050;2022-08-19T11:36:53;19.45;;;12.43;;
23573;SDS011;11965;53.640;10.050;2022-08-19T11:39:23;16.92;;;11.93;;
23573;SDS011;11965;53.640;10.050;2022-08-19T11:41:50;21.33;;;12.70;;
23573;SDS011;11965;53.640;10.050;2022-08-19T11:44:15;18.80;;;12.18;;
23573;SDS011;11965;53.640;10.050;2022-08-19T11:46:41;18.20;;;11.65;;
23573;SDS011;11965;53.640;10.050;2022-08-19T11:49:12;21.70;;;11.75;;
23573;SDS011;11965;53.640;10.050;2022-08-19T11:51:39;17.42;;;10.98;;
23573;SDS011;11965;53.640;10.050;2022-08-19T11:54:06;16.52;;;11.88;;
23573;SDS011;11965;53.640;10.050;2022-08-19T11:56:32;16.17;;;10.90;;
23573;SDS011;11965;53.640;10.050;2022-08-19T11:58:57;19.10;;;11.30;;
23573;SDS011;11965;53.640;10.050;2022-08-19T12:01:23;16.95;;;10.38;;
23573;SDS011;11965;53.640;10.050;2022-08-19T12:03:51;16.20;;;10.65;;
23573;SDS011;11965;53.640;10.050;2022-08-19T12:06:19;14.60;;;10.15;;
23573;SDS011;11965;53.640;10.050;2022-08-19T12:08:50;17.40;;;11.52;;
23573;SDS011;11965;53.640;10.050;2022-08-19T12:11:17;16.90;;;11.00;;
23573;SDS011;11965;53.640;10.050;2022-08-19T12:13:43;16.27;;;10.45;;
23573;SDS011;11965;53.640;10.050;2022-08-19T12:16:20;15.32;;;10.40;;
23573;SDS011;11965;53.640;10.050;2022-08-19T12:18:48;14.70;;;10.48;;
23573;SDS011;11965;53.640;10.050;2022-08-19T12:21:17;13.57;;;10.18;;
23573;SDS011;11965;53.640;10.050;2022-08-19T12:23:46;16.00;;;10.55;;
23573;SDS011;11965;53.640;10.050;2022-08-19T12:26:12;14.60;;;10.02;;
23573;SDS011;11965;53.640;10.050;2022-08-19T12:28:38;14.48;;;9.65;;
23573;SDS011;11965;53.640;10.050;2022-08-19T12:31:03;16.48;;;10.13;;
23573;SDS011;11965;53.640;10.050;2022-08-19T12:33:29;15.35;;;10.10;;
23573;SDS011;11965;53.640;10.050;2022-08-19T12:35:59;16.50;;;11.07;;
23573;SDS011;11965;53.640;10.050;2022-08-19T12:38:26;13.63;;;10.18;;
23573;SDS011;11965;53.640;10.050;2022-08-19T12:40:52;14.43;;;9.90;;
23573;SDS011;11965;53.640;10.050;2022-08-19T12:43:17;15.77;;;9.95;;
23573;SDS011;11965;53.640;10.050;2022-08-19T12:45:44;15.20;;;10.20;;
23573;SDS011;11965;53.640;10.050;2022-08-19T12:48:10;15.02;;;10.50;;
23573;SDS011;11965;53.640;10.050;2022-08-19T12:50:39;15.40;;;10.30;;
23573;SDS011;11965;53.640;10.050;2022-08-19T12:53:05;15.10;;;10.52;;
23573;SDS011;11965;53.640;10.050;2022-08-19T12:55:31;15.57;;;10.75;;
23573;SDS011;11965;53.640;10.050;2022-08-19T12:57:56;17.35;;;10.60;;
23573;SDS011;11965;53.640;10.050;2022-08-19T13:00:22;12.73;;;9.88;;
23573;SDS011;11965;53.640;10.050;2022-08-19T13:02:49;12.60;;;9.02;;
23573;SDS011;11965;53.640;10.050;2022-08-19T13:05:18;12.80;;;9.48;;
23573;SDS011;11965;53.640;10.050;2022-08-19T13:07:45;16.13;;;11.68;;
23573;SDS011;11965;53.640;10.050;2022-08-19T13:10:13;16.63;;;10.98;;
23573;SDS011;11965;53.640;10.050;2022-08-19T13:12:40;14.68;;;10.38;;
23573;SDS011;11965;53.640;10.050;2022-08-19T13:15:07;14.57;;;11.02;;
23573;SDS011;11965;53.640;10.050;2022-08-19T13:17:34;13.75;;;10.80;;
23573;SDS011;11965;53.640;10.050;2022-08-19T13:20:00;14.32;;;10.07;;
23573;SDS011;11965;53.640;10.050;2022-08-19T13:22:25;13.10;;;9.98;;
23573;SDS011;11965;53.640;10.050;2022-08-19T13:24:51;15.60;;;10.98;;
23573;SDS011;11965;53.640;10.050;2022-08-19T13:27:17;13.43;;;10.50;;
23573;SDS011;11965;53.640;10.050;2022-08-19T13:29:43;14.30;;;9.98;;
23573;SDS011;11965;53.640;10.050;2022-08-19T13:32:28;14.75;;;9.30;;
23573;SDS011;11965;53.640;10.050;2022-08-19T13:35:12;17.25;;;10.80;;
23573;SDS011;11965;53.640;10.050;2022-08-19T13:37:38;14.02;;;9.70;;
23573;SDS011;11965;53.640;10.050;2022-08-19T13:40:16;17.02;;;10.02;;
23573;SDS011;11965;53.640;10.050;2022-08-19T13:42:44;11.80;;;8.90;;
23573;SDS011;11965;53.640;10.050;2022-08-19T13:45:12;16.52;;;10.07;;
23573;SDS011;11965;53.640;10.050;2022-08-19T13:47:40;11.48;;;9.40;;
23573;SDS011;11965;53.640;10.050;2022-08-19T13:50:13;12.07;;;9.70;;
23573;SDS011;11965;53.640;10.050;2022-08-19T13:52:40;16.15;;;10.35;;
23573;SDS011;11965;53.640;10.050;2022-08-19T13:55:07;12.82;;;9.52;;
23573;SDS011;11965;53.640;10.050;2022-08-19T13:57:33;13.93;;;9.75;;
23573;SDS011;11965;53.640;10.050;2022-08-19T14:00:00;13.23;;;9.10;;
23573;SDS011;11965;53.640;10.050;2022-08-19T14:02:25;12.57;;;8.90;;
23573;SDS011;11965;53.640;10.050;2022-08-19T14:04:51;11.80;;;8.57;;
23573;SDS011;11965;53.640;10.050;2022-08-19T14:07:17;12.15;;;9.52;;
23573;SDS011;11965;53.640;10.050;2022-08-19T14:09:42;11.75;;;8.68;;
23573;SDS011;11965;53.640;10.050;2022-08-19T14:12:08;10.88;;;9.40;;
23573;SDS011;11965;53.640;10.050;2022-08-19T14:14:37;13.40;;;9.55;;
23573;SDS011;11965;53.640;10.050;2022-08-19T14:17:06;11.98;;;8.77;;
23573;SDS011;11965;53.640;10.050;2022-08-19T14:19:33;12.32;;;8.57;;
23573;SDS011;11965;53.640;10.050;2022-08-19T14:21:58;11.55;;;8.48;;
23573;SDS011;11965;53.640;10.050;2022-08-19T14:24:24;11.00;;;8.65;;
23573;SDS011;11965;53.640;10.050;2022-08-19T14:26:49;12.73;;;9.27;;